X  Schlie├čen METAR Luftfahrt Wetterdaten     EHKD De Kooy Airport
Temperatur
15°C Temperatur
13°C Taupunkt
88% Feuchtigkeit



Wind
11 KM/S
7 MPS
3 M/S
6 KTS



250°
WSW
Aktuelle Wetterlage

Thunderstorm, Regen Thunderstorm, Regen
Luftdruck 1005.76 (hPa) - 29.7 (inHg)
Sichtweite 6 (Meile) - 9.7 (Km)
Flughafen
Flughafen Code EHKD

Position : De Kooy Airport
Entfernung: 34 (Km)

Metar:
EHKD 211925Z AUTO 25006KT 220V290 9999 TSRA FEW015CB SCT031 BKN044 15/13 Q1006 BLU

Zeit: 21-05-2024 21:25 CEST